Antonito, CO (81120)

3:30 AM MDT on May 23, 2017 (GMT -0600)
Fox Creek | | Change Station

Elev 8451 ft 37.07 °N, 106.22 °W | Updated 32 seconds ago

Overcast
Overcast
38.0 °F
Feels Like 32 °F
N
8.0
Wind Variable Wind from SW

Today
High -- | Low -- °F
--% Chance of Precip.
Yesterday
High -- | Low -- °F
Precip. -- in
Pressure 30.00 in
Visibility 10.0 miles
Clouds Few 6000 ft
Scattered Clouds 8000 ft
Overcast 10000 ft
Windchill 32 °F
Dew Point 32 °F
Humidity 79%
Rainfall 0.00 in
Snow Depth Not available.
5:49 AM 8:12 PM
Waning Crescent, 9% visible
METAR KALS 230852Z AUTO 02003KT 10SM FEW060 SCT080 OVC100 07/03 A3020 RMK AO2 RAE33 SLP158 P0001 60001 T00670033 58000
Pressure 30.00 in
Visibility 10.0 miles
Clouds Few 6000 ft
Scattered Clouds 8000 ft
Overcast 10000 ft
Windchill 32 °F
Dew Point 32 °F
Humidity 79%
Rainfall 0.00 in
Snow Depth Not available.
5:49 AM 8:12 PM
Waning Crescent, 9% visible
METAR KALS 230852Z AUTO 02003KT 10SM FEW060 SCT080 OVC100 07/03 A3020 RMK AO2 RAE33 SLP158 P0001 60001 T00670033 58000

Get Severe Weather Alerts

Thanks for signing up!

Be on the lookout for a verification email in your inbox.

You'll start receiving the daily forecast at 6 AM.

×

10-Day Weather Forecast

Almanac

Astronomy

May. 23, 2017 Rise Set
Actual Time
Civil Twilight
Nautical Twilight
Astronomical Twilight
Moon
Length of Visible Light
Length of Day
Tomorrow will be .
, % of the Moon is Illuminated

Today's Extremes

State Highs State Lows

Community

WunderPhotos

Category 6

Welcome to Category 6. This is the collective home for Weather Underground's featured writeups by Dr. Jeff Masters (right), Bob Henson (left), Chris Burt, and other regular contributors.

Nearby

Air Quality

  Air Quality AQ Index Pollutant
Not available.

Snow Depth

Station Depth Elevation

Earthquake Activity

City Distance Mag. Time & Date
Minimum magnitude displayed is 2.5.

Coastal Water Temperatures

Place Temperature

Stations

Nearby Weather Stations

Station Location Temp. Windchill Dew Point Humidity Wind Precip. Elev Updated Type
                   

Watches & Warnings

There are currently no watches in effect.